Meridian Lake, Colorado
Current Conditions -  °F | °C
As of 4:09 PM on Tuesday 25 Nov 2014 (Local Time) from KASE Reporting Station
Haze Haze  
Wind Chill: 22°   Ceiling: 2100
Heat Index: 22°   Visibility: 4mi
Dew Point: 19°   Wind: 3mph
Humidity: 89%   Direction: 350°N
Pressure: 30.22"   Gusts: NA
Location:  38.8977°N, 106.967°W
Report Text: KASE 252309Z 35003KT 4SM BR BKN021 OVC035 M06/M07 A3022 RMK AO2 SNE2258 P0000 T10561072
Loading
Personal Weather Stations






























Interactive Weather Map New forecast layout! Learn more

10-Day Weather Forecast

Advertisements
Track Severe Weather on mobile